Time;durP1;ratioP1;P1;durP2;ratioP2;P2;SDS_P1;SDS_P2;PMS_P1;PMS_P2;Temp;Humidity;BMP_temperature;BMP_pressure;BME280_temperature;BME280_humidity;BME280_pressure;Samples;Min_cycle;Max_cycle;Signal;HPM_P1;HPM_P2
2022/05/09 00:00:13;;;;;;;18.35;10.60;;;16.60;99.90;;;;;;5062841;28;20052;-85
2022/05/09 00:02:39;;;;;;;12.95;9.88;;;16.60;99.90;;;;;;5080982;28;20032;-85
2022/05/09 00:05:07;;;;;;;11.40;8.45;;;16.60;99.90;;;;;;5072896;28;20017;-83
2022/05/09 00:07:33;;;;;;;20.88;9.45;;;16.60;99.90;;;;;;5075351;28;20041;-84
2022/05/09 00:09:58;;;;;;;14.25;9.45;;;16.60;99.90;;;;;;5058713;28;20036;-84
2022/05/09 00:12:24;;;;;;;13.55;8.75;;;16.60;99.90;;;;;;5049444;28;20032;-84
2022/05/09 00:14:50;;;;;;;12.13;8.90;;;16.60;99.90;;;;;;5066259;28;20044;-84
2022/05/09 00:17:16;;;;;;;15.63;10.98;;;16.60;99.90;;;;;;5066576;28;20078;-84
2022/05/09 00:19:41;;;;;;;15.52;11.35;;;16.60;99.90;;;;;;5067664;28;20059;-85
2022/05/09 00:22:07;;;;;;;17.52;11.05;;;16.50;99.90;;;;;;5066825;28;20070;-84
2022/05/09 00:24:33;;;;;;;17.05;11.75;;;16.50;99.90;;;;;;5064584;28;20108;-84
2022/05/09 00:26:58;;;;;;;14.98;11.52;;;16.40;99.90;;;;;;5065369;28;20020;-85
2022/05/09 00:29:25;;;;;;;16.63;11.20;;;16.30;99.90;;;;;;5063723;28;20079;-84
2022/05/09 00:31:53;;;;;;;15.65;11.10;;;16.20;99.90;;;;;;5077847;28;20028;-85
2022/05/09 00:34:21;;;;;;;17.58;11.07;;;16.20;99.90;;;;;;5078381;28;20077;-84
2022/05/09 00:36:48;;;;;;;17.75;11.63;;;16.10;99.90;;;;;;5077673;28;20108;-83
2022/05/09 00:39:15;;;;;;;15.85;11.02;;;16.00;99.90;;;;;;5077931;28;20021;-84
2022/05/09 00:41:43;;;;;;;16.17;11.55;;;16.00;99.90;;;;;;5077176;28;20453;-84
2022/05/09 00:44:26;;;;;;;16.65;10.50;;;16.00;99.90;;;;;;5057407;28;20013;-85
2022/05/09 00:46:54;;;;;;;14.48;10.45;;;15.90;99.90;;;;;;5065238;28;20035;-84
2022/05/09 00:49:25;;;;;;;14.07;9.95;;;15.90;99.90;;;;;;5070364;28;20020;-84
2022/05/09 00:51:59;;;;;;;15.48;11.13;;;15.90;99.90;;;;;;5078378;28;20060;-84
2022/05/09 00:54:29;;;;;;;16.30;11.05;;;15.80;99.90;;;;;;5065396;28;20036;-84
2022/05/09 00:57:02;;;;;;;13.93;10.82;;;15.80;99.90;;;;;;5069310;28;20081;-85
2022/05/09 00:59:32;;;;;;;18.05;11.45;;;15.80;99.90;;;;;;5076729;28;20029;-84
2022/05/09 01:01:57;;;;;;;17.98;10.95;;;15.70;99.90;;;;;;5078708;28;20028;-85
2022/05/09 01:04:26;;;;;;;16.00;11.73;;;15.70;99.90;;;;;;5078453;28;20029;-85
2022/05/09 01:06:53;;;;;;;18.23;11.50;;;15.60;99.90;;;;;;5078471;28;20097;-85
2022/05/09 01:09:19;;;;;;;17.75;11.73;;;15.60;99.90;;;;;;5077873;28;20028;-84
2022/05/09 01:11:47;;;;;;;18.60;12.43;;;15.60;99.90;;;;;;5075487;28;20045;-85
2022/05/09 01:14:18;;;;;;;17.27;12.45;;;15.60;99.90;;;;;;5066166;28;20412;-85
2022/05/09 01:16:46;;;;;;;19.95;12.73;;;15.60;99.90;;;;;;5071376;28;20048;-85
2022/05/09 01:19:28;;;;;;;20.40;12.20;;;15.50;99.90;;;;;;5062539;28;20044;-85
2022/05/09 01:21:54;;;;;;;21.40;12.57;;;15.50;99.90;;;;;;5065429;28;20092;-84
2022/05/09 01:24:22;;;;;;;20.80;13.38;;;15.50;99.90;;;;;;5068919;28;20378;-82
2022/05/09 01:26:48;;;;;;;26.88;12.45;;;15.40;99.90;;;;;;5070380;28;20029;-86
2022/05/09 01:29:31;;;;;;;24.75;13.60;;;15.40;99.90;;;;;;5067026;28;20021;-84
2022/05/09 01:31:57;;;;;;;18.40;12.32;;;15.40;99.90;;;;;;5066944;28;20431;-84
2022/05/09 01:34:23;;;;;;;21.20;12.68;;;15.40;99.90;;;;;;5063501;28;20032;-84
2022/05/09 01:36:59;;;;;;;18.05;13.27;;;15.40;99.90;;;;;;5069581;28;20024;-84
2022/05/09 01:39:24;;;;;;;18.50;12.63;;;15.40;99.90;;;;;;5077651;28;20071;-85
2022/05/09 01:41:52;;;;;;;18.40;13.43;;;15.40;99.90;;;;;;5076815;28;20049;-85
2022/05/09 01:44:20;;;;;;;18.35;12.07;;;15.40;99.90;;;;;;5077219;28;20043;-84
2022/05/09 01:49:32;;;;;;;21.35;14.15;;;15.40;99.90;;;;;;5065488;28;20063;-83
2022/05/09 01:52:00;;;;;;;20.77;13.63;;;15.40;99.90;;;;;;5069853;28;20032;-82
2022/05/09 01:54:27;;;;;;;20.35;13.45;;;15.30;99.90;;;;;;5067191;28;20209;-84
2022/05/09 01:56:53;;;;;;;21.45;13.85;;;15.30;99.90;;;;;;5073098;28;20069;-84
2022/05/09 01:59:19;;;;;;;19.90;13.35;;;15.30;99.90;;;;;;5060430;28;20051;-84
2022/05/09 02:01:57;;;;;;;18.30;13.55;;;15.20;99.90;;;;;;5060080;28;20076;-84
2022/05/09 02:04:23;;;;;;;21.02;13.15;;;15.30;99.90;;;;;;5056703;28;20025;-84
2022/05/09 02:06:49;;;;;;;19.85;13.70;;;15.30;99.90;;;;;;5061816;28;20377;-84
2022/05/09 02:09:16;;;;;;;21.75;13.95;;;15.30;99.90;;;;;;5060038;28;20021;-84
2022/05/09 02:11:41;;;;;;;24.25;14.73;;;15.20;99.90;;;;;;5060196;28;20499;-83
2022/05/09 02:14:08;;;;;;;22.17;14.52;;;15.30;99.90;;;;;;5069461;28;20028;-84
2022/05/09 02:16:35;;;;;;;20.58;13.85;;;15.20;99.90;;;;;;5075465;28;20057;-84
2022/05/09 02:19:01;;;;;;;19.20;13.93;;;15.20;99.90;;;;;;5060713;28;20047;-84
2022/05/09 02:21:27;;;;;;;21.52;14.10;;;15.10;99.90;;;;;;5077011;28;20029;-84
2022/05/09 02:23:53;;;;;;;22.30;14.90;;;15.10;99.90;;;;;;5072025;28;20108;-84
2022/05/09 02:26:19;;;;;;;21.73;14.52;;;15.10;99.90;;;;;;5071566;28;20020;-83
2022/05/09 02:28:44;;;;;;;20.45;14.63;;;15.00;99.90;;;;;;5076663;28;20041;-83
2022/05/09 02:31:10;;;;;;;20.52;14.20;;;15.00;99.90;;;;;;5076611;28;20001;-84
2022/05/09 02:33:36;;;;;;;20.63;14.35;;;15.00;99.90;;;;;;5075843;28;20094;-84
2022/05/09 02:36:02;;;;;;;19.73;15.45;;;15.00;99.90;;;;;;5073240;28;20025;-83
2022/05/09 02:38:28;;;;;;;21.25;14.18;;;14.90;99.90;;;;;;5087936;22;20029;-80
2022/05/09 02:40:56;;;;;;;25.23;15.45;;;14.90;99.90;;;;;;5056811;28;20037;-82
2022/05/09 02:43:22;;;;;;;21.17;14.90;;;14.90;99.90;;;;;;5058892;28;20082;-82
2022/05/09 02:45:48;;;;;;;20.48;14.50;;;14.90;99.90;;;;;;5059255;28;20025;-83
2022/05/09 02:48:15;;;;;;;23.77;15.70;;;14.90;99.90;;;;;;5059062;28;20024;-82
2022/05/09 02:50:40;;;;;;;20.85;15.35;;;14.90;99.90;;;;;;5057535;28;20133;-82
2022/05/09 02:53:08;;;;;;;22.08;14.27;;;14.90;99.90;;;;;;5039962;28;20522;-83
2022/05/09 02:55:34;;;;;;;23.80;15.10;;;14.90;99.90;;;;;;5058563;28;20029;-80
2022/05/09 02:58:01;;;;;;;21.50;13.75;;;14.90;99.90;;;;;;5041145;28;20115;-80
2022/05/09 03:00:29;;;;;;;23.10;14.57;;;14.90;99.90;;;;;;5041573;28;20024;-82
2022/05/09 03:05:42;;;;;;;21.15;13.98;;;14.90;99.90;;;;;;5066133;28;20037;-81
2022/05/09 03:08:10;;;;;;;20.33;13.85;;;14.90;99.90;;;;;;5045524;28;20028;-80
2022/05/09 03:10:37;;;;;;;21.58;14.93;;;14.90;99.90;;;;;;5063791;28;20089;-82
2022/05/09 03:13:04;;;;;;;19.42;13.48;;;14.90;99.90;;;;;;5065451;28;20040;-82
2022/05/09 03:15:35;;;;;;;23.88;13.63;;;14.90;99.90;;;;;;5066635;28;20047;-81
2022/05/09 03:18:02;;;;;;;19.33;13.32;;;14.90;99.90;;;;;;5048281;28;20047;-80
2022/05/09 03:20:28;;;;;;;21.95;14.40;;;14.90;99.90;;;;;;5051175;28;20021;-84
2022/05/09 03:22:54;;;;;;;23.92;14.20;;;14.90;99.90;;;;;;5052821;28;20039;-82
2022/05/09 03:25:20;;;;;;;21.10;13.40;;;14.90;99.90;;;;;;5041991;28;20061;-82
2022/05/09 03:27:46;;;;;;;22.17;14.68;;;14.90;99.90;;;;;;5060599;28;20021;-82
2022/05/09 03:30:14;;;;;;;24.13;13.77;;;15.00;99.90;;;;;;5024373;28;20052;-83
2022/05/09 03:32:41;;;;;;;20.77;13.00;;;15.00;99.90;;;;;;5064559;28;20488;-81
2022/05/09 03:35:08;;;;;;;21.13;12.48;;;15.00;99.90;;;;;;5070052;28;20025;-82
2022/05/09 03:37:34;;;;;;;24.55;12.88;;;15.00;99.90;;;;;;5052095;28;20029;-82
2022/05/09 03:40:00;;;;;;;20.08;12.25;;;15.00;99.90;;;;;;5074156;28;20025;-82
2022/05/09 03:42:26;;;;;;;20.25;13.32;;;15.00;99.90;;;;;;5058013;28;20055;-81
2022/05/09 03:44:52;;;;;;;18.48;12.52;;;15.00;99.90;;;;;;5055464;28;20164;-80
2022/05/09 03:47:18;;;;;;;19.70;12.82;;;15.00;99.90;;;;;;5058972;28;20044;-82
2022/05/09 03:49:44;;;;;;;17.70;12.05;;;15.00;99.90;;;;;;5075281;28;20009;-81
2022/05/09 03:52:09;;;;;;;17.95;12.18;;;15.00;99.90;;;;;;5073185;28;20048;-81
2022/05/09 03:54:35;;;;;;;22.33;12.73;;;15.00;99.90;;;;;;5070757;28;20032;-81
2022/05/09 03:57:02;;;;;;;20.77;12.27;;;15.00;99.90;;;;;;5074704;28;20051;-80
2022/05/09 03:59:28;;;;;;;21.45;13.05;;;15.10;99.90;;;;;;5073467;28;20036;-79
2022/05/09 04:01:56;;;;;;;18.77;12.30;;;15.10;99.90;;;;;;5072857;28;20024;-81
2022/05/09 04:04:22;;;;;;;17.42;11.45;;;15.10;99.90;;;;;;5073048;28;20068;-82
2022/05/09 04:06:51;;;;;;;20.23;11.85;;;15.10;99.90;;;;;;5073177;28;20037;-82
2022/05/09 04:09:17;;;;;;;15.55;11.50;;;15.10;99.90;;;;;;5071269;28;20013;-82
2022/05/09 04:11:45;;;;;;;18.52;11.48;;;15.10;99.90;;;;;;5070213;28;20060;-82
2022/05/09 04:14:11;;;;;;;19.30;11.65;;;15.10;99.90;;;;;;5047427;28;20068;-82
2022/05/09 04:16:49;;;;;;;17.30;11.23;;;15.20;99.90;;;;;;5067502;28;20024;-82
2022/05/09 04:19:19;;;;;;;15.65;11.07;;;15.20;99.90;;;;;;5070208;28;20017;-81
2022/05/09 04:21:44;;;;;;;20.00;11.27;;;15.20;99.90;;;;;;5074061;28;20404;-81
2022/05/09 04:24:10;;;;;;;19.95;11.30;;;15.20;99.90;;;;;;5051336;28;20021;-83
2022/05/09 04:26:37;;;;;;;16.90;11.45;;;15.20;99.90;;;;;;5050227;28;20033;-82
2022/05/09 04:29:03;;;;;;;18.90;11.02;;;15.30;99.90;;;;;;5062873;28;20490;-84
2022/05/09 04:31:30;;;;;;;21.55;11.13;;;15.30;99.90;;;;;;5044006;28;20484;-83
2022/05/09 04:33:58;;;;;;;17.13;11.48;;;15.30;99.90;;;;;;5061287;28;20025;-82
2022/05/09 04:36:26;;;;;;;14.80;10.13;;;15.40;99.90;;;;;;5063710;28;20556;-81
2022/05/09 04:38:53;;;;;;;21.83;11.82;;;15.40;99.90;;;;;;5046537;28;20056;-81
2022/05/09 04:41:20;;;;;;;17.15;11.23;;;15.50;99.90;;;;;;5048911;28;20097;-81
2022/05/09 04:43:47;;;;;;;24.77;10.73;;;15.50;99.90;;;;;;5043594;28;20040;-81
2022/05/09 04:46:14;;;;;;;17.33;11.02;;;15.50;99.90;;;;;;5029002;28;20037;-84
2022/05/09 04:48:41;;;;;;;14.43;10.45;;;15.50;99.90;;;;;;5062543;28;20023;-82
2022/05/09 04:51:08;;;;;;;16.05;10.82;;;15.60;99.90;;;;;;5063426;28;20400;-83
2022/05/09 04:53:34;;;;;;;18.10;9.85;;;15.60;99.90;;;;;;5060758;28;20033;-81
2022/05/09 04:56:01;;;;;;;14.88;10.40;;;15.60;99.90;;;;;;5060996;28;20021;-83
2022/05/09 04:58:27;;;;;;;16.55;11.23;;;15.60;99.90;;;;;;5075777;28;20012;-81
2022/05/09 05:00:54;;;;;;;17.63;9.77;;;15.60;99.90;;;;;;5058146;28;20052;-81
2022/05/09 05:03:20;;;;;;;16.05;10.65;;;15.70;99.90;;;;;;5074020;28;20025;-81
2022/05/09 05:05:48;;;;;;;17.65;9.85;;;15.70;99.90;;;;;;5059677;28;20025;-82
2022/05/09 05:08:15;;;;;;;15.05;9.90;;;15.80;99.90;;;;;;5059746;28;20032;-81
2022/05/09 05:10:42;;;;;;;15.20;9.55;;;15.80;99.90;;;;;;5061474;28;20132;-82
2022/05/09 05:13:08;;;;;;;14.05;9.68;;;15.90;99.90;;;;;;5069917;28;20041;-82
2022/05/09 05:15:34;;;;;;;16.92;9.18;;;15.90;99.90;;;;;;5054279;28;20021;-80
2022/05/09 05:18:00;;;;;;;15.70;9.63;;;15.90;99.90;;;;;;5078912;28;20027;-82
2022/05/09 05:20:27;;;;;;;12.27;8.80;;;15.90;99.90;;;;;;5077684;28;20009;-82
2022/05/09 05:22:52;;;;;;;16.85;8.63;;;15.90;99.90;;;;;;5078262;28;20064;-82
2022/05/09 05:25:22;;;;;;;14.23;8.57;;;16.00;99.90;;;;;;5076564;28;20024;-81
2022/05/09 05:27:48;;;;;;;20.58;9.55;;;16.10;99.90;;;;;;5078998;28;20052;-84
2022/05/09 05:30:16;;;;;;;17.02;8.55;;;16.10;99.90;;;;;;5060742;28;20044;-84
2022/05/09 05:32:42;;;;;;;16.63;9.02;;;16.20;99.90;;;;;;5078304;28;20079;-82
2022/05/09 05:35:20;;;;;;;20.95;8.32;;;16.20;99.90;;;;;;5078557;28;20081;-84
2022/05/09 05:37:47;;;;;;;17.35;9.00;;;16.30;99.90;;;;;;5078521;28;20032;-82
2022/05/09 05:40:13;;;;;;;13.75;8.05;;;16.40;99.90;;;;;;5076839;28;20017;-85
2022/05/09 05:42:43;;;;;;;10.60;8.00;;;16.50;99.90;;;;;;5059527;28;20020;-83
2022/05/09 05:45:16;;;;;;;12.85;8.30;;;16.50;99.90;;;;;;5075374;28;20029;-83
2022/05/09 05:47:44;;;;;;;13.38;8.93;;;16.60;99.90;;;;;;5056914;28;20024;-83
2022/05/09 05:50:12;;;;;;;17.83;8.55;;;16.70;99.90;;;;;;5060589;28;20017;-84
2022/05/09 05:52:38;;;;;;;15.60;9.30;;;16.70;99.90;;;;;;5068122;28;20495;-83
2022/05/09 05:55:04;;;;;;;12.63;8.73;;;16.80;99.90;;;;;;5065382;28;20025;-85
2022/05/09 05:57:33;;;;;;;12.98;8.25;;;16.90;99.90;;;;;;5046887;28;20032;-85
2022/05/09 06:00:18;;;;;;;15.25;9.38;;;17.00;99.90;;;;;;5065889;28;20029;-84
2022/05/09 06:02:45;;;;;;;12.73;8.90;;;17.00;99.90;;;;;;5067516;28;20401;-84
2022/05/09 06:05:13;;;;;;;17.02;8.85;;;17.00;99.90;;;;;;5063827;28;20021;-86
2022/05/09 06:07:40;;;;;;;17.38;8.77;;;17.20;99.90;;;;;;5063593;28;20029;-86
2022/05/09 06:10:08;;;;;;;13.82;9.10;;;17.30;99.90;;;;;;5063505;28;20457;-84
2022/05/09 06:12:34;;;;;;;15.20;8.32;;;17.40;99.90;;;;;;5062288;28;20188;-84
2022/05/09 06:17:47;;;;;;;12.18;8.18;;;17.50;99.90;;;;;;5063474;28;20032;-85
2022/05/09 06:20:13;;;;;;;11.25;8.23;;;17.50;99.90;;;;;;5045900;28;20021;-85
2022/05/09 06:22:39;;;;;;;16.77;9.68;;;17.60;99.90;;;;;;5047906;28;20037;-84
2022/05/09 06:25:10;;;;;;;13.52;8.48;;;17.70;99.90;;;;;;5074539;28;20021;-84
2022/05/09 06:27:37;;;;;;;13.32;8.68;;;17.80;99.90;;;;;;5050746;28;20396;-84
2022/05/09 06:30:07;;;;;;;14.00;7.93;;;17.90;99.90;;;;;;5047669;28;20021;-85
2022/05/09 06:32:33;;;;;;;11.50;8.20;;;18.00;99.90;;;;;;5051624;28;20029;-87
2022/05/09 06:35:08;;;;;;;17.83;9.02;;;18.10;99.90;;;;;;5067542;28;20471;-84
2022/05/09 06:37:35;;;;;;;14.77;8.48;;;18.10;99.90;;;;;;5063977;28;20087;-84
2022/05/09 06:40:03;;;;;;;16.95;8.65;;;18.20;99.90;;;;;;5045631;28;20033;-86
2022/05/09 06:42:29;;;;;;;16.65;9.02;;;18.20;99.90;;;;;;5062601;28;20071;-85
2022/05/09 06:44:55;;;;;;;13.80;8.90;;;18.40;99.90;;;;;;5043025;28;20044;-84
2022/05/09 06:47:21;;;;;;;17.73;9.23;;;18.40;99.90;;;;;;5063609;28;20039;-85
2022/05/09 06:49:47;;;;;;;17.45;9.00;;;18.50;99.90;;;;;;5064908;28;20084;-84
2022/05/09 06:52:13;;;;;;;17.48;9.05;;;18.70;99.90;;;;;;5048152;28;20040;-85
2022/05/09 06:54:39;;;;;;;15.77;9.15;;;18.70;99.90;;;;;;5066279;28;20024;-85
2022/05/09 06:57:05;;;;;;;16.00;9.07;;;18.70;99.90;;;;;;5065244;28;20036;-86
2022/05/09 06:59:32;;;;;;;17.20;10.60;;;18.70;99.90;;;;;;5032467;28;20135;-83
2022/05/09 07:01:58;;;;;;;12.93;8.07;;;18.70;99.90;;;;;;5066278;28;20108;-85
2022/05/09 07:04:24;;;;;;;20.38;9.30;;;18.80;99.90;;;;;;5064673;28;20036;-84
2022/05/09 07:06:50;;;;;;;14.05;9.05;;;18.90;99.90;;;;;;5048308;28;20058;-86
2022/05/09 07:09:16;;;;;;;12.45;8.77;;;19.00;99.90;;;;;;5064884;28;20028;-82
2022/05/09 07:11:42;;;;;;;13.35;8.85;;;19.10;99.90;;;;;;5036068;28;20443;-86
2022/05/09 07:14:08;;;;;;;12.38;8.75;;;19.20;99.90;;;;;;5075707;28;20048;-83
2022/05/09 07:16:35;;;;;;;11.57;7.88;;;19.40;99.90;;;;;;5057082;28;20443;-83
2022/05/09 07:19:01;;;;;;;17.13;8.50;;;19.40;99.90;;;;;;5057188;28;20009;-83
2022/05/09 07:21:27;;;;;;;11.95;8.40;;;19.60;99.90;;;;;;5053752;28;20051;-83
2022/05/09 07:23:53;;;;;;;12.35;7.97;;;19.90;99.90;;;;;;5042624;28;20073;-81
2022/05/09 07:26:21;;;;;;;10.63;7.43;;;20.00;99.90;;;;;;5058361;28;20052;-82
2022/05/09 07:28:47;;;;;;;11.30;8.13;;;20.00;99.90;;;;;;5076047;28;20040;-84
2022/05/09 07:31:15;;;;;;;19.65;8.70;;;20.20;99.90;;;;;;5077105;28;20191;-83
2022/05/09 07:33:42;;;;;;;14.18;8.30;;;20.20;99.90;;;;;;5074914;28;20261;-83
2022/05/09 07:36:08;;;;;;;14.35;7.90;;;20.20;99.90;;;;;;5058719;28;20033;-84
2022/05/09 07:38:33;;;;;;;13.38;7.50;;;20.30;99.90;;;;;;5058996;28;20089;-83
2022/05/09 07:40:59;;;;;;;12.48;8.05;;;20.50;99.90;;;;;;5058904;28;20032;-83
2022/05/09 07:43:27;;;;;;;12.43;8.35;;;20.50;99.90;;;;;;5071475;28;20029;-83
2022/05/09 07:45:55;;;;;;;10.68;7.47;;;20.50;99.90;;;;;;5067523;28;20064;-85
2022/05/09 07:48:22;;;;;;;14.90;9.30;;;20.50;99.90;;;;;;5047391;28;20092;-85
2022/05/09 07:50:49;;;;;;;13.55;8.45;;;20.40;99.90;;;;;;5064528;28;20044;-84
2022/05/09 07:53:21;;;;;;;16.05;8.93;;;20.50;99.90;;;;;;5066138;28;20041;-82
2022/05/09 07:55:48;;;;;;;15.98;9.13;;;20.60;99.90;;;;;;5047314;28;20029;-82
2022/05/09 07:58:17;;;;;;;14.23;8.10;;;20.50;99.90;;;;;;5065941;28;20020;-86
2022/05/09 08:00:44;;;;;;;18.35;8.52;;;20.40;99.90;;;;;;5070519;28;20024;-86
2022/05/09 08:03:30;;;;;;;23.40;8.75;;;20.40;99.90;;;;;;5075274;28;20013;-82
2022/05/09 08:05:58;;;;;;;13.40;9.13;;;20.30;99.90;;;;;;5058476;28;20043;-83
2022/05/09 08:08:25;;;;;;;13.80;9.25;;;20.30;99.90;;;;;;5057400;28;20009;-82
2022/05/09 08:10:50;;;;;;;13.70;8.73;;;20.30;99.90;;;;;;5056996;28;20044;-81
2022/05/09 08:13:18;;;;;;;15.57;9.07;;;20.40;99.90;;;;;;5078582;28;20033;-82
2022/05/09 08:15:47;;;;;;;15.45;8.90;;;20.50;99.90;;;;;;5060879;28;20035;-85
2022/05/09 08:18:13;;;;;;;17.88;8.35;;;20.40;99.90;;;;;;5074414;28;20009;-83
2022/05/09 08:20:42;;;;;;;13.93;8.45;;;20.30;99.90;;;;;;5059627;28;20039;-82
2022/05/09 08:23:11;;;;;;;24.00;9.02;;;20.10;99.90;;;;;;5060852;28;20073;-84
2022/05/09 08:25:41;;;;;;;13.80;8.82;;;20.20;99.90;;;;;;5061415;28;20017;-83
2022/05/09 08:28:08;;;;;;;16.15;9.70;;;20.30;99.90;;;;;;5046044;28;20044;-81
2022/05/09 08:30:35;;;;;;;13.85;8.75;;;20.30;99.90;;;;;;5062251;28;20056;-83
2022/05/09 08:33:11;;;;;;;11.10;8.57;;;20.20;99.90;;;;;;5056264;28;20051;-83
2022/05/09 08:35:37;;;;;;;12.25;8.85;;;20.30;99.90;;;;;;5076207;28;20056;-84
2022/05/09 08:38:02;;;;;;;15.68;10.15;;;20.30;99.90;;;;;;5059839;28;20024;-83
2022/05/09 08:40:34;;;;;;;17.50;9.32;;;20.30;99.90;;;;;;5151838;22;20052;-87
2022/05/09 08:43:21;;;;;;;14.35;8.93;;;20.20;99.90;;;;;;5104999;28;20028;-86
2022/05/09 08:45:57;;;;;;;10.65;8.30;;;20.30;99.90;;;;;;5109501;28;20054;-90
2022/05/09 08:48:23;;;;;;;15.05;9.82;;;20.30;99.90;;;;;;5116427;28;20092;-88
2022/05/09 08:51:04;;;;;;;15.55;9.80;;;20.50;99.90;;;;;;5116246;28;20039;-90
2022/05/09 08:53:34;;;;;;;12.50;9.10;;;20.50;99.90;;;;;;5113092;28;20039;-88
2022/05/09 08:56:01;;;;;;;11.85;8.77;;;20.50;99.90;;;;;;5105600;28;20089;-87
2022/05/09 08:58:49;;;;;;;16.23;8.85;;;20.60;99.90;;;;;;5105394;28;20028;-88
2022/05/09 09:01:28;;;;;;;16.25;8.20;;;20.60;99.90;;;;;;5106727;28;20024;-88
2022/05/09 09:04:21;;;;;;;12.02;7.70;;;20.70;99.90;;;;;;5084026;28;20037;-88
2022/05/09 09:07:13;;;;;;;15.15;7.85;;;21.00;99.90;;;;;;5092939;28;20079;-90
2022/05/09 09:09:50;;;;;;;10.40;7.05;;;21.10;99.90;;;;;;5099757;28;20114;-88
2022/05/09 09:12:37;;;;;;;11.18;6.50;;;21.30;99.90;;;;;;5099691;28;20009;-88
2022/05/09 09:15:06;;;;;;;11.38;7.47;;;21.40;99.90;;;;;;5099359;28;20027;-90
2022/05/09 09:17:33;;;;;;;13.18;7.35;;;21.40;99.90;;;;;;5113951;28;20095;-85
2022/05/09 09:20:13;;;;;;;11.93;7.10;;;21.30;99.90;;;;;;5109836;28;20036;-88
2022/05/09 09:22:45;;;;;;;12.20;6.47;;;21.40;99.90;;;;;;5116043;28;20180;-88
2022/05/09 09:25:20;;;;;;;16.55;6.47;;;21.50;99.90;;;;;;5115217;28;20051;-88
2022/05/09 09:28:04;;;;;;;11.40;7.68;;;21.60;99.90;;;;;;5101144;28;20058;-88
2022/05/09 09:30:30;;;;;;;10.55;7.60;;;21.90;99.90;;;;;;5119136;28;20107;-88
2022/05/09 09:33:00;;;;;;;11.07;8.30;;;22.40;99.90;;;;;;5118754;28;20023;-88
2022/05/09 09:35:31;;;;;;;11.48;8.20;;;22.80;99.90;;;;;;5119903;28;20086;-88
2022/05/09 09:38:03;;;;;;;13.95;8.30;;;23.20;99.90;;;;;;5101781;28;20084;-88
2022/05/09 09:40:29;;;;;;;14.32;7.35;;;24.00;99.90;;;;;;5116951;28;20085;-85
2022/05/09 09:42:56;;;;;;;10.10;7.47;;;25.10;99.40;;;;;;5116190;28;20032;-88
2022/05/09 09:45:54;;;;;;;11.75;7.20;;;26.20;97.90;;;;;;5107788;28;20099;-87
2022/05/09 09:48:22;;;;;;;10.30;7.40;;;27.10;95.80;;;;;;5076850;28;20106;-89
2022/05/09 09:51:04;;;;;;;12.15;8.40;;;27.80;94.20;;;;;;5112395;28;20087;-86
2022/05/09 09:53:39;;;;;;;13.10;8.05;;;28.00;93.00;;;;;;5118826;28;20065;-86
2022/05/09 09:56:05;;;;;;;10.27;7.28;;;28.20;92.40;;;;;;5116896;28;20046;-89
2022/05/09 09:58:32;;;;;;;10.57;6.80;;;28.70;91.90;;;;;;5116838;28;20024;-88
2022/05/09 10:01:01;;;;;;;12.45;6.75;;;29.70;90.70;;;;;;5117188;28;20028;-88
2022/05/09 10:03:29;;;;;;;8.40;6.00;;;31.20;87.60;;;;;;5110372;28;20024;-88
2022/05/09 10:05:56;;;;;;;9.02;6.78;;;32.20;82.90;;;;;;5109934;28;20024;-89
2022/05/09 10:08:30;;;;;;;8.10;6.68;;;32.20;79.90;;;;;;5115739;28;20042;-88
2022/05/09 10:11:04;;;;;;;;;;;32.90;77.40;;;;;;5114625;28;20027;-88
2022/05/09 10:20:53;;;;;;;7.88;5.03;;;35.40;68.90;;;;;;5107507;28;20053;-90
2022/05/09 10:26:36;;;;;;;9.35;4.82;;;36.10;63.40;;;;;;5112072;28;20099;-89
2022/05/09 10:29:13;;;;;;;9.95;4.40;;;36.00;61.50;;;;;;5107506;28;20056;-89
2022/05/09 10:31:43;;;;;;;6.90;4.40;;;36.60;60.60;;;;;;5106798;28;20028;-90
2022/05/09 10:34:38;;;;;;;6.53;4.55;;;36.90;59.70;;;;;;5088582;28;20020;-89
2022/05/09 10:37:38;;;;;;;10.07;4.35;;;37.30;58.80;;;;;;5082081;28;20036;-91
2022/05/09 10:40:15;;;;;;;5.88;4.10;;;38.10;57.40;;;;;;5116261;28;20024;-89
2022/05/09 10:42:53;;;;;;;6.97;3.97;;;37.10;56.30;;;;;;5107173;28;20062;-88
2022/05/09 10:45:24;;;;;;;8.48;4.15;;;36.50;57.10;;;;;;5113686;28;20024;-89
2022/05/09 10:48:01;;;;;;;9.32;4.13;;;36.10;57.30;;;;;;5112051;28;20032;-89
2022/05/09 10:51:04;;;;;;;6.20;3.78;;;36.40;57.00;;;;;;5104343;28;20024;-89
2022/05/09 10:53:53;;;;;;;9.40;4.47;;;37.20;56.20;;;;;;5089463;28;20036;-87
2022/05/09 10:56:33;;;;;;;6.60;4.35;;;37.00;56.00;;;;;;5105230;28;20030;-89
2022/05/09 10:59:07;;;;;;;7.18;4.15;;;37.20;55.20;;;;;;5105290;28;20038;-90
2022/05/09 11:01:44;;;;;;;6.30;4.53;;;37.00;55.00;;;;;;5104798;28;20028;-89
2022/05/09 11:04:12;;;;;;;7.07;4.63;;;36.10;56.10;;;;;;5105980;28;20039;-88
2022/05/09 11:07:03;;;;;;;7.75;4.38;;;35.80;55.60;;;;;;5105988;28;20107;-88
2022/05/09 11:09:57;;;;;;;7.60;4.05;;;36.70;55.70;;;;;;5105637;28;20050;-88
2022/05/09 11:12:36;;;;;;;6.60;4.53;;;36.10;55.20;;;;;;5103919;28;20043;-90
2022/05/09 11:15:18;;;;;;;7.75;4.50;;;35.30;56.10;;;;;;5105853;28;20048;-89
2022/05/09 11:18:14;;;;;;;6.88;4.30;;;34.60;56.80;;;;;;5104868;28;20107;-89
2022/05/09 11:20:55;;;;;;;7.68;4.22;;;34.50;57.10;;;;;;5105705;28;20062;-88
2022/05/09 11:23:38;;;;;;;7.15;4.47;;;35.50;56.20;;;;;;5105712;28;20024;-89
2022/05/09 11:26:24;;;;;;;8.02;4.78;;;36.20;55.40;;;;;;5105333;28;20054;-88
2022/05/09 11:29:01;;;;;;;7.57;4.55;;;37.00;54.80;;;;;;5104967;28;20057;-88
2022/05/09 11:31:33;;;;;;;7.65;4.53;;;37.90;53.90;;;;;;5105138;28;20038;-89
2022/05/09 11:34:14;;;;;;;7.15;4.50;;;35.50;55.10;;;;;;5107321;28;20040;-87
2022/05/09 11:37:06;;;;;;;6.07;4.55;;;34.10;56.00;;;;;;5112744;28;20024;-86
2022/05/09 11:39:36;;;;;;;10.35;4.22;;;34.00;56.70;;;;;;5115689;28;20047;-86
2022/05/09 11:45:57;;;;;;;7.32;4.50;;;32.90;57.30;;;;;;5114968;28;20036;-85
2022/05/09 11:48:50;;;;;;;8.52;4.00;;;33.70;56.70;;;;;;5120797;28;20047;-86
2022/05/09 11:51:22;;;;;;;5.93;4.00;;;34.90;55.80;;;;;;5118011;28;20032;-87
2022/05/09 11:53:57;;;;;;;7.75;4.55;;;36.90;53.70;;;;;;5105450;28;20035;-86
2022/05/09 11:56:24;;;;;;;7.25;4.13;;;36.20;53.60;;;;;;5106005;28;20106;-86
2022/05/09 11:58:51;;;;;;;6.95;4.13;;;33.20;55.40;;;;;;5114619;28;20040;-85
2022/05/09 12:01:56;;;;;;;6.43;4.00;;;32.50;56.70;;;;;;5115404;28;20044;-87
2022/05/09 12:04:34;;;;;;;5.87;4.50;;;33.80;55.40;;;;;;5115990;28;20024;-87
2022/05/09 12:07:19;;;;;;;6.63;4.25;;;34.80;54.60;;;;;;5115611;28;20036;-86
2022/05/09 12:09:58;;;;;;;8.02;4.03;;;34.80;54.90;;;;;;5119501;28;20040;-86
2022/05/09 12:12:41;;;;;;;5.80;3.85;;;35.60;54.10;;;;;;5120197;28;20020;-86
2022/05/09 12:15:21;;;;;;;7.32;3.97;;;35.30;53.70;;;;;;5119329;28;20051;-85
2022/05/09 12:18:04;;;;;;;7.38;4.75;;;35.20;54.60;;;;;;5120042;28;20058;-87
2022/05/09 12:20:30;;;;;;;5.75;3.90;;;36.20;54.10;;;;;;5121076;28;20051;-85
2022/05/09 12:23:07;;;;;;;5.43;3.40;;;37.50;53.40;;;;;;5121197;28;20012;-86
2022/05/09 12:25:36;;;;;;;6.10;3.80;;;38.00;52.40;;;;;;5121144;28;20068;-84
2022/05/09 12:28:18;;;;;;;5.03;3.75;;;38.60;51.40;;;;;;5120983;28;20043;-86
2022/05/09 12:30:48;;;;;;;6.53;3.45;;;38.10;51.20;;;;;;5121087;28;20031;-86
2022/05/09 12:33:23;;;;;;;5.65;3.72;;;36.10;52.70;;;;;;5121076;28;20032;-86
2022/05/09 12:35:51;;;;;;;4.97;3.80;;;33.90;54.30;;;;;;5120635;28;20017;-86
2022/05/09 12:38:26;;;;;;;6.85;3.97;;;32.50;55.90;;;;;;5117245;28;20024;-86
2022/05/09 12:41:08;;;;;;;6.53;3.60;;;33.50;55.30;;;;;;5120702;28;20020;-86
2022/05/09 12:43:36;;;;;;;5.85;3.63;;;34.80;53.80;;;;;;5120831;28;20016;-84
2022/05/09 12:46:05;;;;;;;5.72;3.55;;;36.00;53.10;;;;;;5120572;28;20016;-86
2022/05/09 12:48:32;;;;;;;6.90;3.63;;;35.60;52.50;;;;;;5120190;28;20024;-86
2022/05/09 12:51:07;;;;;;;5.72;3.58;;;34.80;53.40;;;;;;5120146;28;20028;-85
2022/05/09 12:53:38;;;;;;;8.73;4.20;;;34.60;53.50;;;;;;5119980;28;20042;-85
2022/05/09 12:56:24;;;;;;;5.70;4.25;;;34.00;54.30;;;;;;5119290;28;20026;-84
2022/05/09 12:59:09;;;;;;;8.60;3.67;;;32.90;55.00;;;;;;5118518;28;20058;-85
2022/05/09 13:01:39;;;;;;;8.52;3.90;;;31.80;55.60;;;;;;5119954;28;20024;-84
2022/05/09 13:04:16;;;;;;;6.75;3.83;;;30.90;56.40;;;;;;5119642;28;20027;-85
2022/05/09 13:06:50;;;;;;;4.22;3.65;;;30.00;57.20;;;;;;5120338;28;20043;-84
2022/05/09 13:09:20;;;;;;;8.90;4.43;;;31.00;56.50;;;;;;5119169;28;20044;-85
2022/05/09 13:11:56;;;;;;;13.30;3.65;;;32.40;55.00;;;;;;5120250;28;20020;-85
2022/05/09 13:14:41;;;;;;;9.32;3.08;;;33.70;53.60;;;;;;5120061;28;20047;-86